sensor_id;sensor_type;location;lat;lon;timestamp;pressure;altitude;pressure_sealevel;temperature;humidity
60705;BME280;46545;38.014;-7.874;2024-03-22T00:01:01;98651.09;;;16.31;100.00
60705;BME280;46545;38.014;-7.874;2024-03-22T00:03:02;98655.88;;;16.40;100.00
60705;BME280;46545;38.014;-7.874;2024-03-22T00:05:03;98651.38;;;16.30;100.00
60705;BME280;46545;38.014;-7.874;2024-03-22T00:07:04;98641.28;;;16.17;100.00
60705;BME280;46545;38.014;-7.874;2024-03-22T00:09:05;98638.34;;;16.13;100.00
60705;BME280;46545;38.014;-7.874;2024-03-22T00:11:05;98650.81;;;16.09;100.00
60705;BME280;46545;38.014;-7.874;2024-03-22T00:13:06;98637.31;;;16.09;100.00
60705;BME280;46545;38.014;-7.874;2024-03-22T00:15:07;98623.03;;;16.03;100.00
60705;BME280;46545;38.014;-7.874;2024-03-22T00:17:08;98638.78;;;15.96;100.00
60705;BME280;46545;38.014;-7.874;2024-03-22T00:19:08;98654.34;;;15.80;100.00
60705;BME280;46545;38.014;-7.874;2024-03-22T00:21:09;98653.84;;;15.78;100.00
60705;BME280;46545;38.014;-7.874;2024-03-22T00:23:10;98646.00;;;15.77;100.00
60705;BME280;46545;38.014;-7.874;2024-03-22T00:25:10;98653.63;;;15.69;100.00
60705;BME280;46545;38.014;-7.874;2024-03-22T00:27:11;98646.88;;;15.72;100.00
60705;BME280;46545;38.014;-7.874;2024-03-22T00:29:12;98651.78;;;15.65;100.00
60705;BME280;46545;38.014;-7.874;2024-03-22T00:31:13;98638.38;;;15.54;100.00
60705;BME280;46545;38.014;-7.874;2024-03-22T00:33:14;98628.41;;;15.50;100.00
60705;BME280;46545;38.014;-7.874;2024-03-22T00:35:14;98624.03;;;15.54;100.00
60705;BME280;46545;38.014;-7.874;2024-03-22T00:37:15;98622.34;;;15.63;100.00
60705;BME280;46545;38.014;-7.874;2024-03-22T00:39:16;98607.63;;;15.50;100.00
60705;BME280;46545;38.014;-7.874;2024-03-22T00:41:16;98601.78;;;15.38;100.00
60705;BME280;46545;38.014;-7.874;2024-03-22T00:43:17;98606.41;;;15.32;100.00
60705;BME280;46545;38.014;-7.874;2024-03-22T00:45:18;98599.69;;;15.30;100.00
60705;BME280;46545;38.014;-7.874;2024-03-22T00:47:18;98601.53;;;15.34;100.00
60705;BME280;46545;38.014;-7.874;2024-03-22T00:49:19;98597.47;;;15.37;100.00
60705;BME280;46545;38.014;-7.874;2024-03-22T00:51:20;98592.84;;;15.38;100.00
60705;BME280;46545;38.014;-7.874;2024-03-22T00:53:20;98576.34;;;15.44;100.00
60705;BME280;46545;38.014;-7.874;2024-03-22T00:55:21;98540.41;;;15.44;100.00
60705;BME280;46545;38.014;-7.874;2024-03-22T00:57:22;98521.25;;;15.45;100.00
60705;BME280;46545;38.014;-7.874;2024-03-22T00:59:22;98525.09;;;15.39;100.00
60705;BME280;46545;38.014;-7.874;2024-03-22T01:01:23;98525.16;;;15.34;100.00
60705;BME280;46545;38.014;-7.874;2024-03-22T01:03:24;98524.97;;;15.49;100.00
60705;BME280;46545;38.014;-7.874;2024-03-22T01:05:24;98521.41;;;15.54;100.00
60705;BME280;46545;38.014;-7.874;2024-03-22T01:07:26;98536.03;;;15.53;100.00
60705;BME280;46545;38.014;-7.874;2024-03-22T01:09:27;98554.66;;;15.54;100.00
60705;BME280;46545;38.014;-7.874;2024-03-22T01:11:27;98553.91;;;15.44;100.00
60705;BME280;46545;38.014;-7.874;2024-03-22T01:13:28;98556.69;;;15.39;100.00
60705;BME280;46545;38.014;-7.874;2024-03-22T01:15:29;98571.41;;;15.51;100.00
60705;BME280;46545;38.014;-7.874;2024-03-22T01:17:29;98574.09;;;15.51;100.00
60705;BME280;46545;38.014;-7.874;2024-03-22T01:19:30;98609.50;;;15.50;100.00
60705;BME280;46545;38.014;-7.874;2024-03-22T01:21:30;98616.03;;;15.44;100.00
60705;BME280;46545;38.014;-7.874;2024-03-22T01:23:32;98615.81;;;15.40;100.00
60705;BME280;46545;38.014;-7.874;2024-03-22T01:25:33;98622.88;;;15.36;100.00
60705;BME280;46545;38.014;-7.874;2024-03-22T01:27:34;98632.31;;;15.33;100.00
60705;BME280;46545;38.014;-7.874;2024-03-22T01:29:34;98656.09;;;15.31;100.00
60705;BME280;46545;38.014;-7.874;2024-03-22T01:31:36;98655.56;;;15.29;100.00
60705;BME280;46545;38.014;-7.874;2024-03-22T01:33:37;98658.56;;;15.28;100.00
60705;BME280;46545;38.014;-7.874;2024-03-22T01:35:37;98642.63;;;15.26;100.00
60705;BME280;46545;38.014;-7.874;2024-03-22T01:37:38;98648.03;;;15.26;100.00
60705;BME280;46545;38.014;-7.874;2024-03-22T01:39:39;98632.13;;;15.25;100.00
60705;BME280;46545;38.014;-7.874;2024-03-22T01:41:39;98630.78;;;15.22;100.00
60705;BME280;46545;38.014;-7.874;2024-03-22T01:43:40;98618.91;;;15.23;100.00
60705;BME280;46545;38.014;-7.874;2024-03-22T01:45:41;98604.31;;;15.24;100.00
60705;BME280;46545;38.014;-7.874;2024-03-22T01:47:41;98595.66;;;15.27;100.00
60705;BME280;46545;38.014;-7.874;2024-03-22T01:49:43;98596.75;;;15.26;100.00
60705;BME280;46545;38.014;-7.874;2024-03-22T01:51:43;98601.63;;;15.24;100.00
60705;BME280;46545;38.014;-7.874;2024-03-22T01:53:44;98613.50;;;15.23;100.00
60705;BME280;46545;38.014;-7.874;2024-03-22T01:55:45;98617.81;;;15.24;100.00
60705;BME280;46545;38.014;-7.874;2024-03-22T01:57:46;98610.53;;;15.25;100.00
60705;BME280;46545;38.014;-7.874;2024-03-22T01:59:49;98603.75;;;15.27;100.00
60705;BME280;46545;38.014;-7.874;2024-03-22T02:01:52;98611.31;;;15.25;100.00
60705;BME280;46545;38.014;-7.874;2024-03-22T02:03:52;98614.31;;;15.24;100.00
60705;BME280;46545;38.014;-7.874;2024-03-22T02:05:53;98620.78;;;15.23;100.00
60705;BME280;46545;38.014;-7.874;2024-03-22T02:07:54;98622.41;;;15.24;100.00
60705;BME280;46545;38.014;-7.874;2024-03-22T02:09:54;98616.19;;;15.23;100.00
60705;BME280;46545;38.014;-7.874;2024-03-22T02:11:55;98622.44;;;15.19;100.00
60705;BME280;46545;38.014;-7.874;2024-03-22T02:13:56;98619.75;;;15.19;100.00
60705;BME280;46545;38.014;-7.874;2024-03-22T02:15:56;98614.63;;;15.17;100.00
60705;BME280;46545;38.014;-7.874;2024-03-22T02:17:58;98604.66;;;15.18;100.00
60705;BME280;46545;38.014;-7.874;2024-03-22T02:19:59;98609.75;;;15.19;100.00
60705;BME280;46545;38.014;-7.874;2024-03-22T02:21:59;98623.25;;;15.19;100.00
60705;BME280;46545;38.014;-7.874;2024-03-22T02:24:00;98618.16;;;15.18;100.00
60705;BME280;46545;38.014;-7.874;2024-03-22T02:26:02;98605.44;;;15.18;100.00
60705;BME280;46545;38.014;-7.874;2024-03-22T02:28:03;98610.06;;;15.18;100.00
60705;BME280;46545;38.014;-7.874;2024-03-22T02:30:04;98618.44;;;15.16;100.00
60705;BME280;46545;38.014;-7.874;2024-03-22T02:32:06;98622.44;;;15.19;100.00
60705;BME280;46545;38.014;-7.874;2024-03-22T02:34:06;98613.28;;;15.20;100.00
60705;BME280;46545;38.014;-7.874;2024-03-22T02:36:08;98608.94;;;15.24;100.00
60705;BME280;46545;38.014;-7.874;2024-03-22T02:38:09;98609.91;;;15.33;100.00
60705;BME280;46545;38.014;-7.874;2024-03-22T02:40:10;98599.13;;;15.33;100.00
60705;BME280;46545;38.014;-7.874;2024-03-22T02:42:11;98587.53;;;15.32;100.00
60705;BME280;46545;38.014;-7.874;2024-03-22T02:44:12;98580.22;;;15.33;100.00
60705;BME280;46545;38.014;-7.874;2024-03-22T02:46:12;98574.72;;;15.43;100.00
60705;BME280;46545;38.014;-7.874;2024-03-22T02:48:13;98566.63;;;15.43;100.00
60705;BME280;46545;38.014;-7.874;2024-03-22T02:50:14;98559.41;;;15.33;100.00
60705;BME280;46545;38.014;-7.874;2024-03-22T02:52:14;98561.38;;;15.28;100.00
60705;BME280;46545;38.014;-7.874;2024-03-22T02:54:15;98555.81;;;15.43;100.00
60705;BME280;46545;38.014;-7.874;2024-03-22T02:56:16;98536.75;;;15.34;100.00
60705;BME280;46545;38.014;-7.874;2024-03-22T02:58:18;98556.34;;;15.45;100.00
60705;BME280;46545;38.014;-7.874;2024-03-22T03:00:19;98546.88;;;15.48;100.00
60705;BME280;46545;38.014;-7.874;2024-03-22T03:02:20;98549.56;;;15.48;100.00
60705;BME280;46545;38.014;-7.874;2024-03-22T03:04:20;98546.13;;;15.42;100.00
60705;BME280;46545;38.014;-7.874;2024-03-22T03:06:21;98545.59;;;15.40;100.00
60705;BME280;46545;38.014;-7.874;2024-03-22T03:08:22;98551.28;;;15.39;100.00
60705;BME280;46545;38.014;-7.874;2024-03-22T03:10:22;98539.69;;;15.38;100.00
60705;BME280;46545;38.014;-7.874;2024-03-22T03:12:23;98542.41;;;15.33;100.00
60705;BME280;46545;38.014;-7.874;2024-03-22T03:14:24;98540.91;;;15.22;100.00
60705;BME280;46545;38.014;-7.874;2024-03-22T03:16:24;98551.66;;;15.27;100.00
60705;BME280;46545;38.014;-7.874;2024-03-22T03:18:25;98544.09;;;15.29;100.00
60705;BME280;46545;38.014;-7.874;2024-03-22T03:20:26;98551.81;;;15.11;100.00
60705;BME280;46545;38.014;-7.874;2024-03-22T03:22:27;98542.41;;;15.09;100.00
60705;BME280;46545;38.014;-7.874;2024-03-22T03:24:27;98544.00;;;15.10;100.00
60705;BME280;46545;38.014;-7.874;2024-03-22T03:26:28;98549.75;;;15.27;100.00
60705;BME280;46545;38.014;-7.874;2024-03-22T03:28:29;98558.25;;;15.16;100.00
60705;BME280;46545;38.014;-7.874;2024-03-22T03:30:30;98552.41;;;15.03;100.00
60705;BME280;46545;38.014;-7.874;2024-03-22T03:32:30;98552.34;;;15.08;100.00
60705;BME280;46545;38.014;-7.874;2024-03-22T03:34:31;98549.19;;;15.01;100.00
60705;BME280;46545;38.014;-7.874;2024-03-22T03:36:31;98542.09;;;15.10;100.00
60705;BME280;46545;38.014;-7.874;2024-03-22T03:38:32;98543.53;;;15.03;100.00
60705;BME280;46545;38.014;-7.874;2024-03-22T03:40:33;98542.34;;;15.14;100.00
60705;BME280;46545;38.014;-7.874;2024-03-22T03:42:33;98529.09;;;15.18;100.00
60705;BME280;46545;38.014;-7.874;2024-03-22T03:44:34;98527.47;;;15.17;100.00
60705;BME280;46545;38.014;-7.874;2024-03-22T03:46:35;98524.75;;;15.17;100.00
60705;BME280;46545;38.014;-7.874;2024-03-22T03:48:35;98524.47;;;15.18;100.00
60705;BME280;46545;38.014;-7.874;2024-03-22T03:50:36;98531.63;;;15.04;100.00
60705;BME280;46545;38.014;-7.874;2024-03-22T03:52:37;98534.66;;;14.97;100.00
60705;BME280;46545;38.014;-7.874;2024-03-22T03:54:37;98527.34;;;15.03;100.00
60705;BME280;46545;38.014;-7.874;2024-03-22T03:56:38;98527.34;;;15.03;100.00
60705;BME280;46545;38.014;-7.874;2024-03-22T03:58:39;98527.78;;;15.10;100.00
60705;BME280;46545;38.014;-7.874;2024-03-22T04:00:39;98528.06;;;15.08;100.00
60705;BME280;46545;38.014;-7.874;2024-03-22T04:02:40;98519.34;;;15.22;100.00
60705;BME280;46545;38.014;-7.874;2024-03-22T04:04:40;98525.69;;;15.07;100.00
60705;BME280;46545;38.014;-7.874;2024-03-22T04:06:43;98531.06;;;15.07;100.00
60705;BME280;46545;38.014;-7.874;2024-03-22T04:08:44;98531.59;;;15.09;100.00
60705;BME280;46545;38.014;-7.874;2024-03-22T04:10:54;98524.00;;;15.11;100.00
60705;BME280;46545;38.014;-7.874;2024-03-22T04:12:57;98515.59;;;15.18;100.00
60705;BME280;46545;38.014;-7.874;2024-03-22T04:14:58;98516.94;;;15.15;100.00
60705;BME280;46545;38.014;-7.874;2024-03-22T04:16:59;98521.41;;;15.30;100.00
60705;BME280;46545;38.014;-7.874;2024-03-22T04:19:00;98509.25;;;15.27;100.00
60705;BME280;46545;38.014;-7.874;2024-03-22T04:21:01;98522.03;;;15.22;100.00
60705;BME280;46545;38.014;-7.874;2024-03-22T04:23:01;98521.44;;;15.25;100.00
60705;BME280;46545;38.014;-7.874;2024-03-22T04:25:02;98525.28;;;15.19;100.00
60705;BME280;46545;38.014;-7.874;2024-03-22T04:27:03;98525.63;;;15.12;100.00
60705;BME280;46545;38.014;-7.874;2024-03-22T04:29:04;98520.81;;;15.09;100.00
60705;BME280;46545;38.014;-7.874;2024-03-22T04:31:09;98507.72;;;15.21;100.00
60705;BME280;46545;38.014;-7.874;2024-03-22T04:33:09;98501.47;;;15.26;100.00
60705;BME280;46545;38.014;-7.874;2024-03-22T04:35:10;98497.94;;;15.25;100.00
60705;BME280;46545;38.014;-7.874;2024-03-22T04:37:11;98498.72;;;15.31;100.00
60705;BME280;46545;38.014;-7.874;2024-03-22T04:39:14;98493.47;;;15.40;100.00
60705;BME280;46545;38.014;-7.874;2024-03-22T04:41:16;98493.03;;;15.32;100.00
60705;BME280;46545;38.014;-7.874;2024-03-22T04:43:17;98494.34;;;15.35;100.00
60705;BME280;46545;38.014;-7.874;2024-03-22T04:45:18;98492.16;;;15.37;100.00
60705;BME280;46545;38.014;-7.874;2024-03-22T04:47:20;98491.31;;;15.42;100.00
60705;BME280;46545;38.014;-7.874;2024-03-22T04:49:20;98497.84;;;15.36;100.00
60705;BME280;46545;38.014;-7.874;2024-03-22T04:51:21;98498.94;;;15.34;100.00
60705;BME280;46545;38.014;-7.874;2024-03-22T04:53:22;98490.75;;;15.45;100.00
60705;BME280;46545;38.014;-7.874;2024-03-22T04:55:22;98482.16;;;15.38;100.00
60705;BME280;46545;38.014;-7.874;2024-03-22T04:57:23;98485.22;;;15.31;100.00
60705;BME280;46545;38.014;-7.874;2024-03-22T04:59:24;98479.25;;;15.34;100.00
60705;BME280;46545;38.014;-7.874;2024-03-22T05:01:25;98483.03;;;15.33;100.00
60705;BME280;46545;38.014;-7.874;2024-03-22T05:03:25;98482.75;;;15.34;100.00
60705;BME280;46545;38.014;-7.874;2024-03-22T05:05:26;98478.16;;;15.35;100.00
60705;BME280;46545;38.014;-7.874;2024-03-22T05:07:27;98489.06;;;15.25;100.00
60705;BME280;46545;38.014;-7.874;2024-03-22T05:09:27;98474.78;;;15.19;100.00
60705;BME280;46545;38.014;-7.874;2024-03-22T05:11:28;98475.00;;;15.28;100.00
60705;BME280;46545;38.014;-7.874;2024-03-22T05:13:29;98469.19;;;15.40;100.00
60705;BME280;46545;38.014;-7.874;2024-03-22T05:15:29;98476.66;;;15.48;100.00
60705;BME280;46545;38.014;-7.874;2024-03-22T05:17:30;98476.50;;;15.39;100.00
60705;BME280;46545;38.014;-7.874;2024-03-22T05:19:32;98467.13;;;15.56;100.00
60705;BME280;46545;38.014;-7.874;2024-03-22T05:21:32;98461.56;;;15.47;100.00
60705;BME280;46545;38.014;-7.874;2024-03-22T05:23:33;98464.63;;;15.40;100.00
60705;BME280;46545;38.014;-7.874;2024-03-22T05:25:34;98475.63;;;15.44;100.00
60705;BME280;46545;38.014;-7.874;2024-03-22T05:27:35;98470.75;;;15.46;100.00
60705;BME280;46545;38.014;-7.874;2024-03-22T05:29:35;98474.94;;;15.33;100.00
60705;BME280;46545;38.014;-7.874;2024-03-22T05:31:46;98470.81;;;15.41;100.00
60705;BME280;46545;38.014;-7.874;2024-03-22T05:33:48;98471.88;;;15.40;100.00
60705;BME280;46545;38.014;-7.874;2024-03-22T05:35:48;98472.19;;;15.38;100.00
60705;BME280;46545;38.014;-7.874;2024-03-22T05:37:49;98463.22;;;15.43;100.00
60705;BME280;46545;38.014;-7.874;2024-03-22T05:39:51;98465.47;;;15.60;100.00
60705;BME280;46545;38.014;-7.874;2024-03-22T05:41:51;98464.66;;;15.59;100.00
60705;BME280;46545;38.014;-7.874;2024-03-22T05:43:52;98463.88;;;15.59;100.00
60705;BME280;46545;38.014;-7.874;2024-03-22T05:45:52;98459.38;;;15.49;100.00
60705;BME280;46545;38.014;-7.874;2024-03-22T05:47:53;98452.88;;;15.50;100.00
60705;BME280;46545;38.014;-7.874;2024-03-22T05:49:54;98457.13;;;15.56;100.00
60705;BME280;46545;38.014;-7.874;2024-03-22T05:51:55;98471.44;;;15.57;100.00
60705;BME280;46545;38.014;-7.874;2024-03-22T05:53:56;98467.13;;;15.56;100.00
60705;BME280;46545;38.014;-7.874;2024-03-22T05:55:57;98469.81;;;15.56;100.00
60705;BME280;46545;38.014;-7.874;2024-03-22T05:57:58;98475.34;;;15.69;100.00
60705;BME280;46545;38.014;-7.874;2024-03-22T05:59:58;98479.47;;;15.62;100.00
60705;BME280;46545;38.014;-7.874;2024-03-22T06:02:00;98473.03;;;15.58;100.00
60705;BME280;46545;38.014;-7.874;2024-03-22T06:04:01;98472.47;;;15.61;100.00
60705;BME280;46545;38.014;-7.874;2024-03-22T06:06:01;98463.56;;;15.60;100.00
60705;BME280;46545;38.014;-7.874;2024-03-22T06:08:04;98475.38;;;15.64;100.00
60705;BME280;46545;38.014;-7.874;2024-03-22T06:10:05;98477.44;;;15.78;100.00
60705;BME280;46545;38.014;-7.874;2024-03-22T06:12:06;98480.94;;;15.78;100.00
60705;BME280;46545;38.014;-7.874;2024-03-22T06:14:07;98489.38;;;15.71;100.00
60705;BME280;46545;38.014;-7.874;2024-03-22T06:16:07;98485.91;;;15.66;100.00
60705;BME280;46545;38.014;-7.874;2024-03-22T06:18:08;98498.00;;;15.73;100.00
60705;BME280;46545;38.014;-7.874;2024-03-22T06:20:09;98496.84;;;15.80;100.00
60705;BME280;46545;38.014;-7.874;2024-03-22T06:22:10;98496.72;;;15.90;100.00
60705;BME280;46545;38.014;-7.874;2024-03-22T06:24:10;98495.38;;;15.87;100.00
60705;BME280;46545;38.014;-7.874;2024-03-22T06:26:11;98501.09;;;15.86;100.00
60705;BME280;46545;38.014;-7.874;2024-03-22T06:28:12;98508.56;;;15.94;100.00
60705;BME280;46545;38.014;-7.874;2024-03-22T06:30:13;98512.06;;;15.94;100.00
60705;BME280;46545;38.014;-7.874;2024-03-22T06:32:13;98509.22;;;15.86;100.00
60705;BME280;46545;38.014;-7.874;2024-03-22T06:34:14;98510.00;;;15.86;100.00
60705;BME280;46545;38.014;-7.874;2024-03-22T06:36:15;98514.03;;;15.89;100.00
60705;BME280;46545;38.014;-7.874;2024-03-22T06:38:15;98513.16;;;15.93;100.00
60705;BME280;46545;38.014;-7.874;2024-03-22T06:40:16;98519.31;;;15.99;100.00
60705;BME280;46545;38.014;-7.874;2024-03-22T06:42:17;98508.25;;;15.96;100.00
60705;BME280;46545;38.014;-7.874;2024-03-22T06:44:17;98508.06;;;15.92;100.00
60705;BME280;46545;38.014;-7.874;2024-03-22T06:46:18;98511.03;;;15.90;100.00
60705;BME280;46545;38.014;-7.874;2024-03-22T06:48:19;98522.25;;;16.03;100.00
60705;BME280;46545;38.014;-7.874;2024-03-22T06:50:20;98525.81;;;15.98;100.00
60705;BME280;46545;38.014;-7.874;2024-03-22T06:52:24;98524.06;;;16.07;100.00
60705;BME280;46545;38.014;-7.874;2024-03-22T06:54:25;98512.09;;;16.13;100.00
60705;BME280;46545;38.014;-7.874;2024-03-22T06:56:26;98512.84;;;16.19;100.00
60705;BME280;46545;38.014;-7.874;2024-03-22T06:58:27;98521.59;;;16.11;100.00
60705;BME280;46545;38.014;-7.874;2024-03-22T07:00:29;98516.56;;;16.23;100.00
60705;BME280;46545;38.014;-7.874;2024-03-22T07:02:29;98512.31;;;16.17;100.00
60705;BME280;46545;38.014;-7.874;2024-03-22T07:04:30;98508.72;;;16.22;100.00
60705;BME280;46545;38.014;-7.874;2024-03-22T07:06:31;98523.41;;;16.16;100.00
60705;BME280;46545;38.014;-7.874;2024-03-22T07:08:31;98521.50;;;16.16;100.00
60705;BME280;46545;38.014;-7.874;2024-03-22T07:10:32;98510.28;;;16.28;100.00
60705;BME280;46545;38.014;-7.874;2024-03-22T07:12:34;98511.44;;;16.41;100.00
60705;BME280;46545;38.014;-7.874;2024-03-22T07:14:34;98514.22;;;16.36;100.00
60705;BME280;46545;38.014;-7.874;2024-03-22T07:16:35;98518.84;;;16.35;100.00
60705;BME280;46545;38.014;-7.874;2024-03-22T07:18:37;98526.63;;;16.37;100.00
60705;BME280;46545;38.014;-7.874;2024-03-22T07:20:39;98522.63;;;16.34;100.00
60705;BME280;46545;38.014;-7.874;2024-03-22T07:22:40;98518.16;;;16.43;100.00
60705;BME280;46545;38.014;-7.874;2024-03-22T07:24:40;98515.66;;;16.47;100.00
60705;BME280;46545;38.014;-7.874;2024-03-22T07:26:41;98514.47;;;16.39;100.00
60705;BME280;46545;38.014;-7.874;2024-03-22T07:28:42;98514.47;;;16.39;100.00
60705;BME280;46545;38.014;-7.874;2024-03-22T07:30:42;98509.81;;;16.59;100.00
60705;BME280;46545;38.014;-7.874;2024-03-22T07:32:45;98511.28;;;16.51;100.00
60705;BME280;46545;38.014;-7.874;2024-03-22T07:34:46;98507.78;;;16.50;100.00
60705;BME280;46545;38.014;-7.874;2024-03-22T07:36:47;98514.59;;;16.48;100.00
60705;BME280;46545;38.014;-7.874;2024-03-22T07:38:48;98509.47;;;16.46;100.00
60705;BME280;46545;38.014;-7.874;2024-03-22T07:40:49;98513.78;;;16.66;100.00
60705;BME280;46545;38.014;-7.874;2024-03-22T07:42:50;98513.56;;;16.63;100.00
60705;BME280;46545;38.014;-7.874;2024-03-22T07:44:50;98509.97;;;16.67;98.31
60705;BME280;46545;38.014;-7.874;2024-03-22T07:46:51;98510.69;;;16.73;97.86
60705;BME280;46545;38.014;-7.874;2024-03-22T07:48:52;98518.00;;;16.72;97.53
60705;BME280;46545;38.014;-7.874;2024-03-22T07:50:57;98514.00;;;16.89;94.56
60705;BME280;46545;38.014;-7.874;2024-03-22T07:52:58;98510.09;;;16.95;93.34
60705;BME280;46545;38.014;-7.874;2024-03-22T07:54:58;98520.94;;;16.95;92.37
60705;BME280;46545;38.014;-7.874;2024-03-22T07:56:59;98509.09;;;16.91;92.45
60705;BME280;46545;38.014;-7.874;2024-03-22T07:59:00;98509.28;;;16.94;92.01
60705;BME280;46545;38.014;-7.874;2024-03-22T08:01:00;98502.78;;;16.96;91.34
60705;BME280;46545;38.014;-7.874;2024-03-22T08:03:01;98498.59;;;17.03;90.62
60705;BME280;46545;38.014;-7.874;2024-03-22T08:05:02;98506.50;;;17.13;89.06
60705;BME280;46545;38.014;-7.874;2024-03-22T08:07:03;98506.91;;;17.07;89.27
60705;BME280;46545;38.014;-7.874;2024-03-22T08:09:04;98500.41;;;17.08;89.22
60705;BME280;46545;38.014;-7.874;2024-03-22T08:11:05;98507.91;;;17.11;89.49
60705;BME280;46545;38.014;-7.874;2024-03-22T08:13:05;98503.84;;;17.27;87.08
60705;BME280;46545;38.014;-7.874;2024-03-22T08:15:06;98516.06;;;17.25;86.57
60705;BME280;46545;38.014;-7.874;2024-03-22T08:17:07;98511.66;;;17.29;85.75
60705;BME280;46545;38.014;-7.874;2024-03-22T08:19:09;98518.31;;;17.37;85.78
60705;BME280;46545;38.014;-7.874;2024-03-22T08:21:10;98519.00;;;17.42;85.02
60705;BME280;46545;38.014;-7.874;2024-03-22T08:23:11;98525.94;;;17.48;83.79
60705;BME280;46545;38.014;-7.874;2024-03-22T08:25:11;98521.91;;;17.46;84.07
60705;BME280;46545;38.014;-7.874;2024-03-22T08:27:12;98523.66;;;17.55;83.07
60705;BME280;46545;38.014;-7.874;2024-03-22T08:29:13;98521.53;;;17.52;82.75
60705;BME280;46545;38.014;-7.874;2024-03-22T08:31:15;98516.31;;;17.70;81.80
60705;BME280;46545;38.014;-7.874;2024-03-22T08:33:18;98511.00;;;17.79;79.94
60705;BME280;46545;38.014;-7.874;2024-03-22T08:35:18;98514.50;;;17.79;79.70
60705;BME280;46545;38.014;-7.874;2024-03-22T08:37:19;98518.94;;;18.03;77.46
60705;BME280;46545;38.014;-7.874;2024-03-22T08:39:20;98514.69;;;18.10;76.76
60705;BME280;46545;38.014;-7.874;2024-03-22T08:41:20;98516.53;;;18.15;75.11
60705;BME280;46545;38.014;-7.874;2024-03-22T08:43:21;98512.47;;;18.26;74.60
60705;BME280;46545;38.014;-7.874;2024-03-22T08:45:29;98511.69;;;18.12;75.95
60705;BME280;46545;38.014;-7.874;2024-03-22T08:47:30;98520.66;;;17.99;76.62
60705;BME280;46545;38.014;-7.874;2024-03-22T08:49:31;98514.41;;;18.12;74.72
60705;BME280;46545;38.014;-7.874;2024-03-22T08:51:32;98511.09;;;18.15;74.09
60705;BME280;46545;38.014;-7.874;2024-03-22T08:53:32;98508.19;;;18.11;74.75
60705;BME280;46545;38.014;-7.874;2024-03-22T08:55:33;98513.75;;;18.29;73.42
60705;BME280;46545;38.014;-7.874;2024-03-22T08:57:34;98511.66;;;18.26;73.50
60705;BME280;46545;38.014;-7.874;2024-03-22T08:59:34;98502.09;;;18.42;71.86
60705;BME280;46545;38.014;-7.874;2024-03-22T09:01:36;98502.69;;;18.62;70.35
60705;BME280;46545;38.014;-7.874;2024-03-22T09:03:36;98508.56;;;18.55;70.31
60705;BME280;46545;38.014;-7.874;2024-03-22T09:05:37;98512.13;;;18.64;69.67
60705;BME280;46545;38.014;-7.874;2024-03-22T09:07:42;98517.44;;;18.83;67.48
60705;BME280;46545;38.014;-7.874;2024-03-22T09:10:12;98531.53;;;19.17;65.75
60705;BME280;46545;38.014;-7.874;2024-03-22T09:12:13;98526.19;;;19.34;64.94
60705;BME280;46545;38.014;-7.874;2024-03-22T09:14:13;98523.13;;;20.07;60.74
60705;BME280;46545;38.014;-7.874;2024-03-22T09:16:14;98522.38;;;20.24;59.89
60705;BME280;46545;38.014;-7.874;2024-03-22T09:18:15;98513.19;;;19.93;60.74
60705;BME280;46545;38.014;-7.874;2024-03-22T09:20:44;98506.69;;;20.38;59.31
60705;BME280;46545;38.014;-7.874;2024-03-22T09:22:57;98496.41;;;21.05;56.49
60705;BME280;46545;38.014;-7.874;2024-03-22T09:24:58;98499.94;;;21.05;55.63
60705;BME280;46545;38.014;-7.874;2024-03-22T09:26:59;98513.28;;;20.72;56.34
60705;BME280;46545;38.014;-7.874;2024-03-22T09:29:00;98511.78;;;21.09;55.79
60705;BME280;46545;38.014;-7.874;2024-03-22T09:31:05;98507.94;;;21.19;55.38
60705;BME280;46545;38.014;-7.874;2024-03-22T09:33:08;98508.75;;;21.02;55.42
60705;BME280;46545;38.014;-7.874;2024-03-22T09:35:20;98502.59;;;21.31;54.19
60705;BME280;46545;38.014;-7.874;2024-03-22T09:37:35;98503.16;;;20.99;54.81
60705;BME280;46545;38.014;-7.874;2024-03-22T09:39:45;98507.94;;;21.19;54.14
60705;BME280;46545;38.014;-7.874;2024-03-22T09:41:46;98521.00;;;21.43;53.72
60705;BME280;46545;38.014;-7.874;2024-03-22T09:43:48;98517.75;;;21.59;53.50
60705;BME280;46545;38.014;-7.874;2024-03-22T09:45:50;98524.25;;;21.75;52.33
60705;BME280;46545;38.014;-7.874;2024-03-22T09:47:52;98529.25;;;22.03;51.48
60705;BME280;46545;38.014;-7.874;2024-03-22T09:49:56;98515.97;;;21.92;51.13
60705;BME280;46545;38.014;-7.874;2024-03-22T09:51:59;98506.84;;;21.88;51.54
60705;BME280;46545;38.014;-7.874;2024-03-22T09:54:11;98503.34;;;21.88;51.18
60705;BME280;46545;38.014;-7.874;2024-03-22T09:56:20;98507.88;;;22.05;51.07
60705;BME280;46545;38.014;-7.874;2024-03-22T09:58:23;98510.53;;;22.22;50.58
60705;BME280;46545;38.014;-7.874;2024-03-22T10:00:27;98510.81;;;22.50;49.92
60705;BME280;46545;38.014;-7.874;2024-03-22T10:02:30;98512.53;;;22.55;49.73
60705;BME280;46545;38.014;-7.874;2024-03-22T10:04:33;98518.31;;;22.74;48.69
60705;BME280;46545;38.014;-7.874;2024-03-22T10:07:13;98525.03;;;22.77;48.05
60705;BME280;46545;38.014;-7.874;2024-03-22T10:09:16;98517.94;;;22.64;48.10
60705;BME280;46545;38.014;-7.874;2024-03-22T10:11:18;98517.66;;;22.35;49.61
60705;BME280;46545;38.014;-7.874;2024-03-22T10:13:19;98530.88;;;21.95;49.29
60705;BME280;46545;38.014;-7.874;2024-03-22T10:15:19;98517.50;;;21.81;50.44
60705;BME280;46545;38.014;-7.874;2024-03-22T10:17:20;98517.09;;;21.62;50.55
60705;BME280;46545;38.014;-7.874;2024-03-22T10:19:22;98524.22;;;21.45;51.31
60705;BME280;46545;38.014;-7.874;2024-03-22T10:21:23;98530.31;;;21.25;52.42
60705;BME280;46545;38.014;-7.874;2024-03-22T10:23:25;98529.25;;;21.17;52.20
60705;BME280;46545;38.014;-7.874;2024-03-22T10:25:27;98521.72;;;21.14;53.39
60705;BME280;46545;38.014;-7.874;2024-03-22T10:27:42;98528.78;;;21.15;53.37
60705;BME280;46545;38.014;-7.874;2024-03-22T10:29:43;98523.06;;;21.55;52.22